Pinewood, Vermont
Current Conditions -  °F | °C
As of 7:54 AM on Sunday 23 Nov 2014 (Local Time) from KBTV Reporting Station
Overcast Overcast  
Wind Chill: 36°   Ceiling: 2700
Heat Index: 42°   Visibility: 10mi
Dew Point: 36°   Wind: 12mph
Humidity: 79%   Direction: 190°S
Pressure: 30.04"   Gusts: NA
Location:  44.5358°N, 73.0548°W
Report Text: KBTV 231254Z 19010KT 10SM OVC027 06/02 A3004 RMK AO2 SLP177 CLDS OBSCG MTNS E-SE VCSH T00560022
Loading
Personal Weather Stations






























Interactive Weather Map New forecast layout! Learn more

10-Day Weather Forecast

Advertisements
Track Severe Weather on mobile